createdAt,value
2019-05-30T00:02:12.372Z,2.07
2019-05-30T00:04:42.673Z,2.13
2019-05-30T00:07:13.010Z,2.30
2019-05-30T00:09:43.417Z,2.60
2019-05-30T00:12:13.728Z,2.37
2019-05-30T00:14:44.031Z,2.90
2019-05-30T00:17:14.351Z,2.40
2019-05-30T00:19:44.648Z,2.50
2019-05-30T00:22:15.011Z,2.80
2019-05-30T00:24:45.339Z,2.60
2019-05-30T00:27:15.655Z,2.63
2019-05-30T00:29:45.957Z,2.70
2019-05-30T00:32:16.294Z,2.87
2019-05-30T00:34:46.687Z,2.90
2019-05-30T00:37:16.993Z,3.00
2019-05-30T00:39:47.439Z,3.03
2019-05-30T00:42:17.747Z,3.23
2019-05-30T00:44:48.150Z,2.90
2019-05-30T00:47:18.465Z,2.90
2019-05-30T00:49:48.786Z,3.23
2019-05-30T00:52:19.190Z,3.27
2019-05-30T00:54:49.553Z,3.40
2019-05-30T00:57:19.954Z,3.10
2019-05-30T00:59:50.351Z,3.57
2019-05-30T01:02:20.742Z,3.03
2019-05-30T01:04:51.063Z,3.50
2019-05-30T01:07:21.575Z,3.40
2019-05-30T01:09:52.993Z,3.53
2019-05-30T01:12:23.507Z,3.10
2019-05-30T01:14:53.887Z,3.33
2019-05-30T01:17:24.212Z,3.57
2019-05-30T01:19:54.619Z,3.17
2019-05-30T01:22:24.949Z,3.40
2019-05-30T01:24:55.387Z,3.30
2019-05-30T01:27:25.754Z,3.77
2019-05-30T01:29:57.285Z,3.77
2019-05-30T01:32:30.887Z,3.57
2019-05-30T01:35:01.998Z,3.80
2019-05-30T01:37:32.417Z,3.77
2019-05-30T01:40:03.918Z,4.30
2019-05-30T01:42:34.636Z,4.00
2019-05-30T01:45:06.266Z,4.00
2019-05-30T01:47:36.633Z,4.40
2019-05-30T01:50:07.029Z,4.03
2019-05-30T01:52:37.456Z,4.07
2019-05-30T01:55:09.023Z,4.53
2019-05-30T01:57:39.594Z,3.87
2019-05-30T02:00:19.936Z,4.20
2019-05-30T02:02:43.633Z,4.30
2019-05-30T02:05:14.837Z,4.30
2019-05-30T02:07:45.174Z,3.80
2019-05-30T02:10:17.073Z,4.07
2019-05-30T02:12:47.366Z,4.77
2019-05-30T02:15:17.982Z,4.33
2019-05-30T02:17:48.277Z,4.13
2019-05-30T02:20:18.916Z,4.40
2019-05-30T02:22:49.190Z,4.70
2019-05-30T02:25:20.393Z,4.63
2019-05-30T02:27:50.732Z,4.20
2019-05-30T02:30:21.240Z,4.50
2019-05-30T02:32:52.584Z,4.50
2019-05-30T02:35:23.784Z,5.10
2019-05-30T02:37:54.146Z,4.60
2019-05-30T02:40:26.078Z,4.97
2019-05-30T02:42:56.407Z,4.67
2019-05-30T02:45:26.705Z,4.83
2019-05-30T02:47:57.114Z,5.07
2019-05-30T02:50:27.405Z,5.07
2019-05-30T02:52:57.780Z,5.70
2019-05-30T02:55:28.155Z,4.93
2019-05-30T02:57:58.525Z,4.87
2019-05-30T03:00:36.598Z,5.17
2019-05-30T03:03:09.161Z,4.77
2019-05-30T03:05:38.675Z,4.90
2019-05-30T03:08:11.549Z,5.50
2019-05-30T03:10:42.388Z,5.40
2019-05-30T03:13:12.999Z,5.50
2019-05-30T03:15:43.595Z,5.57
2019-05-30T03:18:14.936Z,5.47
2019-05-30T03:20:45.763Z,5.70
2019-05-30T03:23:16.133Z,5.57
2019-05-30T03:25:46.464Z,5.73
2019-05-30T03:28:16.959Z,6.10
2019-05-30T03:30:47.366Z,5.87
2019-05-30T03:33:35.993Z,5.70
2019-05-30T03:35:49.779Z,5.93
2019-05-30T03:38:20.393Z,5.80
2019-05-30T03:40:51.142Z,6.17
2019-05-30T03:43:21.464Z,6.27
2019-05-30T03:45:52.151Z,6.17
2019-05-30T03:48:25.843Z,6.10
2019-05-30T03:50:58.849Z,6.13
2019-05-30T03:53:29.215Z,6.00
2019-05-30T03:56:06.669Z,5.60
2019-05-30T03:59:00.205Z,5.67
2019-05-30T04:01:37.402Z,5.73
2019-05-30T04:04:14.577Z,6.67
2019-05-30T04:06:49.261Z,6.83
2019-05-30T04:09:24.690Z,6.17
2019-05-30T04:12:20.926Z,6.27
2019-05-30T04:14:54.285Z,6.13
2019-05-30T04:17:24.602Z,6.43
2019-05-30T04:19:55.027Z,7.00
2019-05-30T04:22:25.474Z,6.50
2019-05-30T04:24:55.860Z,6.47
2019-05-30T04:27:26.170Z,6.40
2019-05-30T04:29:56.578Z,6.10
2019-05-30T04:32:26.881Z,6.20
2019-05-30T04:34:57.192Z,5.73
2019-05-30T04:37:27.502Z,6.17
2019-05-30T04:39:57.814Z,5.83
2019-05-30T04:42:28.118Z,6.13
2019-05-30T04:44:58.450Z,6.30
2019-05-30T04:47:28.768Z,6.27
2019-05-30T04:49:59.113Z,5.90
2019-05-30T04:52:29.423Z,5.83
2019-05-30T04:54:59.743Z,6.03
2019-05-30T04:57:30.113Z,6.30
2019-05-30T05:00:00.503Z,5.83
2019-05-30T05:02:30.814Z,6.00
2019-05-30T05:05:01.162Z,5.80
2019-05-30T05:07:31.466Z,5.83
2019-05-30T05:10:01.801Z,6.10
2019-05-30T05:12:32.106Z,6.20
2019-05-30T05:15:02.433Z,5.77
2019-05-30T05:17:33.000Z,5.73
2019-05-30T05:20:03.535Z,5.50
2019-05-30T05:22:33.884Z,5.60
2019-05-30T05:25:04.525Z,5.30
2019-05-30T05:27:34.903Z,5.50
2019-05-30T05:30:07.710Z,5.50
2019-05-30T05:32:38.774Z,5.40
2019-05-30T05:35:09.112Z,6.00
2019-05-30T05:37:39.953Z,6.37
2019-05-30T05:40:10.467Z,5.73
2019-05-30T05:42:42.037Z,5.43
2019-05-30T05:45:13.264Z,5.57
2019-05-30T05:47:43.577Z,5.60
2019-05-30T05:50:13.913Z,5.60
2019-05-30T05:52:44.226Z,6.10
2019-05-30T05:55:14.794Z,5.73
2019-05-30T05:57:45.286Z,5.73
2019-05-30T06:00:16.890Z,5.50
2019-05-30T06:02:47.293Z,6.00
2019-05-30T06:05:18.016Z,5.90
2019-05-30T06:07:48.451Z,5.47
2019-05-30T06:10:19.654Z,5.70
2019-05-30T06:12:49.970Z,5.67
2019-05-30T06:15:20.823Z,5.47
2019-05-30T06:17:51.269Z,5.80
2019-05-30T06:20:21.686Z,5.30
2019-05-30T06:22:53.594Z,5.77
2019-05-30T06:25:26.680Z,5.20
2019-05-30T06:27:55.878Z,5.37
2019-05-30T06:30:26.477Z,5.40
2019-05-30T06:32:58.207Z,5.33
2019-05-30T06:35:29.478Z,5.20
2019-05-30T06:37:59.919Z,5.83
2019-05-30T06:40:32.145Z,4.93
2019-05-30T06:43:02.403Z,5.33
2019-05-30T06:45:32.717Z,4.90
2019-05-30T06:48:03.078Z,4.97
2019-05-30T06:50:33.527Z,4.67
2019-05-30T06:53:03.863Z,5.10
2019-05-30T06:55:34.197Z,4.90
2019-05-30T06:58:04.612Z,4.80
2019-05-30T07:00:35.122Z,4.90
2019-05-30T07:03:05.762Z,4.80
2019-05-30T07:05:36.796Z,4.67
2019-05-30T07:08:07.102Z,5.00
2019-05-30T07:10:37.521Z,4.63
2019-05-30T07:13:07.875Z,4.90
2019-05-30T07:15:38.377Z,4.80
2019-05-30T07:18:08.652Z,4.60
2019-05-30T07:20:39.119Z,4.60
2019-05-30T07:23:09.543Z,5.03
2019-05-30T07:25:42.826Z,4.63
2019-05-30T07:28:14.395Z,4.70
2019-05-30T07:30:44.483Z,3.97
2019-05-30T07:33:15.612Z,4.43
2019-05-30T07:35:46.987Z,4.33
2019-05-30T07:38:17.223Z,3.87
2019-05-30T07:40:47.579Z,3.60
2019-05-30T07:43:17.995Z,3.60
2019-05-30T07:45:57.706Z,3.37
2019-05-30T07:48:20.963Z,3.70
2019-05-30T07:50:51.884Z,3.30
2019-05-30T07:53:23.094Z,4.10
2019-05-30T07:55:53.641Z,3.70
2019-05-30T07:58:24.117Z,3.70
2019-05-30T08:00:54.486Z,3.60
2019-05-30T08:03:26.378Z,3.27
2019-05-30T08:06:00.593Z,3.37
2019-05-30T08:08:31.869Z,3.90
2019-05-30T08:11:09.622Z,4.10
2019-05-30T08:13:33.854Z,3.50
2019-05-30T08:16:04.587Z,3.47
2019-05-30T08:18:35.844Z,3.60
2019-05-30T08:21:06.494Z,3.30
2019-05-30T08:23:36.814Z,3.30
2019-05-30T08:26:07.902Z,3.97
2019-05-30T08:28:39.012Z,3.50
2019-05-30T08:31:10.581Z,3.93
2019-05-30T08:33:41.022Z,3.40
2019-05-30T08:36:11.468Z,3.83
2019-05-30T08:38:41.765Z,3.23
2019-05-30T08:41:12.090Z,3.50
2019-05-30T08:43:42.400Z,3.53
2019-05-30T08:46:12.798Z,3.20
2019-05-30T08:48:43.261Z,3.70
2019-05-30T08:51:13.637Z,4.97
2019-05-30T08:53:43.962Z,4.17
2019-05-30T08:56:14.400Z,3.30
2019-05-30T08:58:44.661Z,3.13
2019-05-30T09:01:15.086Z,3.10
2019-05-30T09:03:46.272Z,3.27
2019-05-30T09:06:16.623Z,2.97
2019-05-30T09:08:47.130Z,2.90
2019-05-30T09:11:17.434Z,3.13
2019-05-30T09:13:47.793Z,3.10
2019-05-30T09:16:18.097Z,3.23
2019-05-30T09:18:48.462Z,3.03
2019-05-30T09:21:18.741Z,3.03
2019-05-30T09:23:49.110Z,3.00
2019-05-30T09:26:19.591Z,2.97
2019-05-30T09:28:50.008Z,2.97
2019-05-30T09:31:20.405Z,3.23
2019-05-30T09:33:50.799Z,3.20
2019-05-30T09:36:21.118Z,3.20
2019-05-30T09:38:52.673Z,3.20
2019-05-30T09:41:22.981Z,4.10
2019-05-30T09:44:01.303Z,3.07
2019-05-30T09:46:31.921Z,3.00
2019-05-30T09:49:03.352Z,2.93
2019-05-30T09:51:33.877Z,2.90
2019-05-30T09:54:04.695Z,2.90
2019-05-30T09:56:35.005Z,3.77
2019-05-30T09:59:05.784Z,2.57
2019-05-30T10:01:36.082Z,2.60
2019-05-30T10:04:06.462Z,2.40
2019-05-30T10:06:36.767Z,2.30
2019-05-30T10:09:08.882Z,1.90
2019-05-30T10:11:39.529Z,2.00
2019-05-30T10:14:09.924Z,2.03
2019-05-30T10:16:40.485Z,2.00
2019-05-30T10:19:10.789Z,1.93
2019-05-30T10:21:41.126Z,2.20
2019-05-30T10:24:11.657Z,1.90
2019-05-30T10:26:42.073Z,2.10
2019-05-30T10:29:12.373Z,2.20
2019-05-30T10:31:42.690Z,2.00
2019-05-30T10:34:13.261Z,1.97
2019-05-30T10:36:44.684Z,2.40
2019-05-30T10:39:16.773Z,2.40
2019-05-30T10:41:47.604Z,2.00
2019-05-30T10:44:18.529Z,2.40
2019-05-30T10:46:51.095Z,2.00
2019-05-30T10:49:34.146Z,2.00
2019-05-30T10:51:58.843Z,2.17
2019-05-30T10:54:30.568Z,2.00
2019-05-30T10:57:02.428Z,1.80
2019-05-30T10:59:32.771Z,1.90
2019-05-30T11:02:03.102Z,1.80
2019-05-30T11:04:33.433Z,1.70
2019-05-30T11:07:13.889Z,1.50
2019-05-30T11:09:48.677Z,1.57
2019-05-30T11:12:19.340Z,1.27
2019-05-30T11:14:51.405Z,1.40
2019-05-30T11:17:22.054Z,1.27
2019-05-30T11:19:53.986Z,1.50
2019-05-30T11:22:24.739Z,1.13
2019-05-30T11:24:56.798Z,1.20
2019-05-30T11:27:27.145Z,2.23
2019-05-30T11:29:57.452Z,1.90
2019-05-30T11:32:27.835Z,1.30
2019-05-30T11:34:59.650Z,1.30
2019-05-30T11:37:30.048Z,1.67
2019-05-30T11:40:00.371Z,1.70
2019-05-30T11:42:30.702Z,1.47
2019-05-30T11:45:01.102Z,1.37
2019-05-30T11:47:31.407Z,1.53
2019-05-30T11:50:01.721Z,1.33
2019-05-30T11:52:32.030Z,1.60
2019-05-30T11:55:02.339Z,1.40
2019-05-30T11:57:32.724Z,1.67
2019-05-30T12:00:03.152Z,1.50
2019-05-30T12:02:33.518Z,1.67
2019-05-30T12:05:04.577Z,1.70
2019-05-30T12:07:36.731Z,1.70
2019-05-30T12:10:07.297Z,1.53
2019-05-30T12:12:39.409Z,1.30
2019-05-30T12:15:13.271Z,1.43
2019-05-30T12:17:43.501Z,1.50
2019-05-30T12:20:15.614Z,1.53
2019-05-30T12:22:45.917Z,1.40
2019-05-30T12:25:16.827Z,1.30
2019-05-30T12:27:47.136Z,1.50
2019-05-30T12:30:19.038Z,1.30
2019-05-30T12:32:49.342Z,1.30
2019-05-30T12:35:19.850Z,1.50
2019-05-30T12:37:58.401Z,1.73
2019-05-30T12:40:22.421Z,1.67
2019-05-30T12:42:55.784Z,1.50
2019-05-30T12:45:25.125Z,1.70
2019-05-30T12:47:55.575Z,2.00
2019-05-30T12:50:25.975Z,1.93
2019-05-30T12:52:57.496Z,1.47
2019-05-30T12:55:27.918Z,1.50
2019-05-30T12:57:58.639Z,1.57
2019-05-30T13:00:30.315Z,1.63
2019-05-30T13:03:00.891Z,1.30
2019-05-30T13:05:34.291Z,1.43
2019-05-30T13:08:17.620Z,1.60
2019-05-30T13:10:36.659Z,1.37
2019-05-30T13:13:06.775Z,1.43
2019-05-30T13:15:37.240Z,1.50
2019-05-30T13:18:07.620Z,1.43
2019-05-30T13:20:38.055Z,1.63
2019-05-30T13:23:08.346Z,1.60
2019-05-30T13:25:38.749Z,1.60
2019-05-30T13:28:09.055Z,1.40
2019-05-30T13:30:39.897Z,1.30
2019-05-30T13:33:10.194Z,1.40
2019-05-30T13:35:40.972Z,1.33
2019-05-30T13:38:25.483Z,1.40
2019-05-30T13:40:43.237Z,1.80
2019-05-30T13:43:13.547Z,1.03
2019-05-30T13:45:43.869Z,1.13
2019-05-30T13:48:14.306Z,1.27
2019-05-30T13:50:44.768Z,1.50
2019-05-30T13:53:15.073Z,1.30
2019-05-30T13:55:45.411Z,1.20
2019-05-30T13:58:15.714Z,1.23
2019-05-30T14:00:46.034Z,1.30
2019-05-30T14:03:16.339Z,1.23
2019-05-30T14:05:46.666Z,1.23
2019-05-30T14:08:16.964Z,1.03
2019-05-30T14:10:47.357Z,1.30
2019-05-30T14:13:18.272Z,1.10
2019-05-30T14:15:48.636Z,1.37
2019-05-30T14:18:19.020Z,1.40
2019-05-30T14:20:50.488Z,1.07
2019-05-30T14:23:20.754Z,1.50
2019-05-30T14:25:52.920Z,1.47
2019-05-30T14:28:24.736Z,1.10
2019-05-30T14:30:55.034Z,1.50
2019-05-30T14:33:25.342Z,1.37
2019-05-30T14:35:55.726Z,1.17
2019-05-30T14:38:26.043Z,1.70
2019-05-30T14:40:56.347Z,1.50
2019-05-30T14:43:26.655Z,1.30
2019-05-30T14:45:56.963Z,1.63
2019-05-30T14:48:27.289Z,1.70
2019-05-30T14:50:57.649Z,1.40
2019-05-30T14:53:27.953Z,1.70
2019-05-30T14:55:58.282Z,1.47
2019-05-30T14:58:28.581Z,1.60
2019-05-30T15:00:58.990Z,1.60
2019-05-30T15:03:29.521Z,1.40
2019-05-30T15:05:59.845Z,1.60
2019-05-30T15:08:30.182Z,1.40
2019-05-30T15:11:00.505Z,2.10
2019-05-30T15:13:30.931Z,2.40
2019-05-30T15:16:01.412Z,2.00
2019-05-30T15:18:31.716Z,1.97
2019-05-30T15:21:02.043Z,2.03
2019-05-30T15:23:32.338Z,1.30
2019-05-30T15:26:02.684Z,1.30
2019-05-30T15:28:33.006Z,1.47
2019-05-30T15:31:03.349Z,1.37
2019-05-30T15:33:33.646Z,1.47
2019-05-30T15:36:03.990Z,1.40
2019-05-30T15:38:34.293Z,1.50
2019-05-30T15:41:04.643Z,1.40
2019-05-30T15:43:34.950Z,1.60
2019-05-30T15:46:05.318Z,3.73
2019-05-30T15:48:35.810Z,1.80
2019-05-30T15:51:06.181Z,1.47
2019-05-30T15:53:36.571Z,1.43
2019-05-30T15:56:06.530Z,1.10
2019-05-30T15:58:36.913Z,1.63
2019-05-30T16:01:07.383Z,1.30
2019-05-30T16:03:38.796Z,1.60
2019-05-30T16:06:11.020Z,1.30
2019-05-30T16:08:41.273Z,1.40
2019-05-30T16:11:12.736Z,2.07
2019-05-30T16:13:44.345Z,2.67
2019-05-30T16:16:15.697Z,1.90
2019-05-30T16:18:46.074Z,1.73
2019-05-30T16:21:17.551Z,1.40
2019-05-30T16:23:48.325Z,1.60
2019-05-30T16:26:21.963Z,1.73
2019-05-30T16:28:52.369Z,1.60
2019-05-30T16:31:22.686Z,3.73
2019-05-30T16:33:53.000Z,1.70
2019-05-30T16:36:23.361Z,1.60
2019-05-30T16:38:53.671Z,1.90
2019-05-30T16:41:23.973Z,1.50
2019-05-30T16:43:54.375Z,2.03
2019-05-30T16:46:24.768Z,3.77
2019-05-30T16:48:55.130Z,2.80
2019-05-30T16:51:25.431Z,1.67
2019-05-30T16:53:55.862Z,1.53
2019-05-30T16:56:26.253Z,1.90
2019-05-30T16:58:56.568Z,1.80
2019-05-30T17:01:26.899Z,1.70
2019-05-30T17:03:57.231Z,1.53
2019-05-30T17:06:28.046Z,1.60
2019-05-30T17:08:58.364Z,1.63
2019-05-30T17:11:28.822Z,2.10
2019-05-30T17:13:59.269Z,1.57
2019-05-30T17:16:29.630Z,1.70
2019-05-30T17:18:59.948Z,1.53
2019-05-30T17:21:30.337Z,1.63
2019-05-30T17:24:00.881Z,1.70
2019-05-30T17:26:31.867Z,1.80
2019-05-30T17:29:02.342Z,2.23
2019-05-30T17:31:32.655Z,1.73
2019-05-30T17:34:03.677Z,2.03
2019-05-30T17:36:34.042Z,2.10
2019-05-30T17:39:06.613Z,1.90
2019-05-30T17:41:36.917Z,1.80
2019-05-30T17:44:07.591Z,2.10
2019-05-30T17:46:37.993Z,1.90
2019-05-30T17:49:08.349Z,1.90
2019-05-30T17:51:39.063Z,2.20
2019-05-30T17:54:09.574Z,2.03
2019-05-30T17:56:40.327Z,1.80
2019-05-30T17:59:10.626Z,1.40
2019-05-30T18:01:41.362Z,2.00
2019-05-30T18:04:11.726Z,1.80
2019-05-30T18:06:42.059Z,2.07
2019-05-30T18:09:12.412Z,1.73
2019-05-30T18:11:42.754Z,1.80
2019-05-30T18:14:13.098Z,2.23
2019-05-30T18:16:43.508Z,1.80
2019-05-30T18:19:13.850Z,1.70
2019-05-30T18:21:44.378Z,1.70
2019-05-30T18:24:14.734Z,1.60
2019-05-30T18:26:45.040Z,1.60
2019-05-30T18:29:18.721Z,1.80
2019-05-30T18:31:47.442Z,1.57
2019-05-30T18:34:17.784Z,1.70
2019-05-30T18:36:48.098Z,1.40
2019-05-30T18:39:18.561Z,1.00
2019-05-30T18:41:48.922Z,1.10
2019-05-30T18:44:20.957Z,1.33
2019-05-30T18:46:51.281Z,1.37
2019-05-30T18:49:22.925Z,1.20
2019-05-30T18:51:53.414Z,1.43
2019-05-30T18:54:24.398Z,1.30
2019-05-30T18:56:54.905Z,1.77
2019-05-30T18:59:25.213Z,1.30
2019-05-30T19:01:55.518Z,1.40
2019-05-30T19:04:25.822Z,1.30
2019-05-30T19:06:56.135Z,1.23
2019-05-30T19:09:26.943Z,1.33
2019-05-30T19:11:57.247Z,1.17
2019-05-30T19:14:31.014Z,1.40
2019-05-30T19:16:59.582Z,1.30
2019-05-30T19:19:29.893Z,1.43
2019-05-30T19:22:00.247Z,1.60
2019-05-30T19:24:30.667Z,1.43
2019-05-30T19:27:00.942Z,1.47
2019-05-30T19:29:31.256Z,1.53
2019-05-30T19:32:01.559Z,1.83
2019-05-30T19:34:33.060Z,1.40
2019-05-30T19:37:03.542Z,1.93
2019-05-30T19:39:33.887Z,2.20
2019-05-30T19:42:04.290Z,1.93
2019-05-30T19:44:38.361Z,2.10
2019-05-30T19:47:08.269Z,2.37
2019-05-30T19:49:40.241Z,3.27
2019-05-30T19:52:12.200Z,2.83
2019-05-30T19:54:43.149Z,3.00
2019-05-30T19:57:13.568Z,2.60
2019-05-30T19:59:43.962Z,2.60
2019-05-30T20:02:14.605Z,2.60
2019-05-30T20:04:44.958Z,2.67
2019-05-30T20:07:15.306Z,2.63
2019-05-30T20:10:00.238Z,2.70
2019-05-30T20:12:18.011Z,3.00
2019-05-30T20:14:52.664Z,2.67
2019-05-30T20:17:24.243Z,2.77
2019-05-30T20:19:55.231Z,3.50
2019-05-30T20:22:27.912Z,3.10
2019-05-30T20:24:57.830Z,4.73
2019-05-30T20:27:30.415Z,4.37
2019-05-30T20:30:00.846Z,3.17
2019-05-30T20:32:31.977Z,3.43
2019-05-30T20:35:04.966Z,3.10
2019-05-30T20:37:36.797Z,3.30
2019-05-30T20:40:08.090Z,3.10
2019-05-30T20:42:38.986Z,3.20
2019-05-30T20:45:10.750Z,3.10
2019-05-30T20:47:44.484Z,3.47
2019-05-30T20:50:19.664Z,3.40
2019-05-30T20:52:52.101Z,3.30
2019-05-30T20:55:23.459Z,3.60
2019-05-30T20:57:59.236Z,3.27
2019-05-30T21:00:40.413Z,3.10
2019-05-30T21:03:12.197Z,3.20
2019-05-30T21:05:44.176Z,3.03
2019-05-30T21:08:15.645Z,3.10
2019-05-30T21:10:47.460Z,3.33
2019-05-30T21:13:19.528Z,3.37
2019-05-30T21:15:50.631Z,3.50
2019-05-30T21:18:21.021Z,3.40
2019-05-30T21:20:51.322Z,3.43
2019-05-30T21:23:21.653Z,3.40
2019-05-30T21:25:51.971Z,3.33
2019-05-30T21:28:22.286Z,3.30
2019-05-30T21:30:52.674Z,3.73
2019-05-30T21:33:22.998Z,3.47
2019-05-30T21:35:53.326Z,3.47
2019-05-30T21:38:23.599Z,3.73
2019-05-30T21:40:53.942Z,4.00
2019-05-30T21:43:24.247Z,3.80
2019-05-30T21:45:54.594Z,3.60
2019-05-30T21:48:24.919Z,3.73
2019-05-30T21:50:55.254Z,3.70
2019-05-30T21:53:25.710Z,3.23
2019-05-30T21:55:56.110Z,3.63
2019-05-30T21:58:26.425Z,3.60
2019-05-30T22:01:31.268Z,3.63
2019-05-30T22:04:01.761Z,3.50
2019-05-30T22:06:32.191Z,3.60
2019-05-30T22:09:03.735Z,3.87
2019-05-30T22:11:34.343Z,3.57
2019-05-30T22:14:04.853Z,3.90
2019-05-30T22:16:35.250Z,3.50
2019-05-30T22:19:06.022Z,3.63
2019-05-30T22:21:36.363Z,3.50
2019-05-30T22:24:06.935Z,3.60
2019-05-30T22:26:37.406Z,4.07
2019-05-30T22:29:07.698Z,3.70
2019-05-30T22:31:38.451Z,3.87
2019-05-30T22:34:08.861Z,3.80
2019-05-30T22:36:39.667Z,3.40
2019-05-30T22:39:09.988Z,3.80
2019-05-30T22:41:40.847Z,3.90
2019-05-30T22:44:11.414Z,3.50
2019-05-30T22:46:41.722Z,4.00
2019-05-30T22:49:12.050Z,4.20
2019-05-30T22:51:42.362Z,3.90
2019-05-30T22:54:12.669Z,3.40
2019-05-30T22:56:43.029Z,3.80
2019-05-30T22:59:13.358Z,4.07
2019-05-30T23:01:44.809Z,3.90
2019-05-30T23:04:15.207Z,3.73
2019-05-30T23:06:46.230Z,4.00
2019-05-30T23:09:16.681Z,4.00
2019-05-30T23:11:47.677Z,3.83
2019-05-30T23:14:18.078Z,4.47
2019-05-30T23:16:48.389Z,3.60
2019-05-30T23:19:18.699Z,4.03
2019-05-30T23:21:49.005Z,3.83
2019-05-30T23:24:19.459Z,4.67
2019-05-30T23:26:49.765Z,4.70
2019-05-30T23:29:20.069Z,4.93
2019-05-30T23:31:50.485Z,3.90
2019-05-30T23:34:20.786Z,3.90
2019-05-30T23:36:52.154Z,3.83
2019-05-30T23:39:22.740Z,4.00
2019-05-30T23:41:53.178Z,4.03
2019-05-30T23:44:23.592Z,3.90
2019-05-30T23:46:55.790Z,4.10
2019-05-30T23:49:26.057Z,4.10
2019-05-30T23:51:56.385Z,3.97
2019-05-30T23:54:26.766Z,3.80
2019-05-30T23:56:58.494Z,4.10
2019-05-30T23:59:28.966Z,3.97
